createdAt,value
2023-04-12T00:02:59.688Z,99.50
2023-04-12T00:08:05.193Z,99.46
2023-04-12T00:13:07.996Z,100.00
2023-04-12T00:18:09.600Z,98.69
2023-04-12T00:23:13.001Z,98.91
2023-04-12T00:28:16.138Z,99.67
2023-04-12T00:33:18.461Z,99.13
2023-04-12T00:38:20.086Z,99.09
2023-04-12T00:43:21.839Z,99.07
2023-04-12T00:48:24.826Z,100.00
2023-04-12T00:53:26.631Z,100.00
2023-04-12T00:58:28.243Z,100.00
2023-04-12T01:03:30.960Z,100.00
2023-04-12T01:09:05.147Z,100.00
2023-04-12T01:14:31.622Z,100.00
2023-04-12T01:19:59.055Z,100.00
2023-04-12T01:25:11.083Z,100.00
2023-04-12T01:30:15.928Z,100.00
2023-04-12T01:35:19.401Z,100.00
2023-04-12T01:40:21.318Z,100.00
2023-04-12T01:45:22.963Z,100.00
2023-04-12T01:50:49.971Z,100.00
2023-04-12T01:55:56.359Z,100.00
2023-04-12T02:01:00.913Z,100.00
2023-04-12T02:06:05.049Z,100.00
2023-04-12T02:11:09.725Z,100.00
2023-04-12T02:16:13.931Z,100.00
2023-04-12T02:21:16.088Z,100.00
2023-04-12T02:26:17.730Z,100.00
2023-04-12T02:31:19.803Z,100.00
2023-04-12T02:36:23.702Z,100.00
2023-04-12T02:41:25.684Z,100.00
2023-04-12T02:46:28.704Z,100.00
2023-04-12T02:51:33.161Z,100.00
2023-04-12T02:56:37.424Z,100.00
2023-04-12T03:01:53.726Z,100.00
2023-04-12T03:07:06.709Z,100.00
2023-04-12T03:12:17.105Z,100.00
2023-04-12T03:17:43.026Z,100.00
2023-04-12T03:22:46.200Z,100.00
2023-04-12T03:27:47.946Z,100.00
2023-04-12T03:32:53.998Z,100.00
2023-04-12T03:37:56.514Z,100.00
2023-04-12T03:43:00.728Z,100.00
2023-04-12T03:48:05.137Z,100.00
2023-04-12T03:53:15.744Z,100.00
2023-04-12T03:58:20.715Z,100.00
2023-04-12T04:03:27.059Z,100.00
2023-04-12T04:08:39.973Z,100.00
2023-04-12T04:13:41.893Z,100.00
2023-04-12T04:18:47.650Z,100.00
2023-04-12T04:23:52.800Z,100.00
2023-04-12T04:28:55.534Z,100.00
2023-04-12T04:34:05.395Z,100.00
2023-04-12T04:39:09.303Z,100.00
2023-04-12T04:44:21.849Z,100.00
2023-04-12T04:49:29.254Z,100.00
2023-04-12T04:54:37.544Z,100.00
2023-04-12T04:59:40.365Z,100.00
2023-04-12T05:04:51.364Z,100.00
2023-04-12T05:09:57.149Z,100.00
2023-04-12T05:15:11.186Z,100.00
2023-04-12T05:20:14.122Z,99.16
2023-04-12T05:25:15.819Z,99.28
2023-04-12T05:30:28.186Z,98.89
2023-04-12T05:35:31.606Z,98.87
2023-04-12T05:40:36.504Z,94.99
2023-04-12T05:45:41.470Z,83.29
2023-04-12T05:50:53.200Z,69.64
2023-04-12T05:55:56.439Z,62.47
2023-04-12T06:00:59.058Z,65.96
2023-04-12T06:06:03.228Z,64.95
2023-04-12T06:11:05.604Z,63.92
2023-04-12T06:16:07.946Z,66.70
2023-04-12T06:21:10.013Z,63.90
2023-04-12T06:26:11.766Z,64.22
2023-04-12T06:31:16.130Z,64.33
2023-04-12T06:36:18.672Z,64.23
2023-04-12T06:41:20.407Z,61.91
2023-04-12T06:46:27.549Z,59.00
2023-04-12T06:51:29.313Z,58.03
2023-04-12T06:56:30.949Z,61.40
2023-04-12T07:01:32.629Z,58.88
2023-04-12T07:06:34.475Z,60.01
2023-04-12T07:11:36.212Z,58.40
2023-04-12T07:16:38.013Z,55.52
2023-04-12T07:21:39.672Z,55.63
2023-04-12T07:26:41.278Z,54.59
2023-04-12T07:31:42.909Z,50.53
2023-04-12T07:36:45.034Z,47.65
2023-04-12T07:41:48.366Z,45.73
2023-04-12T07:46:49.977Z,39.70
2023-04-12T07:51:51.920Z,35.66
2023-04-12T07:57:01.142Z,37.80
2023-04-12T08:02:03.451Z,35.45
2023-04-12T08:07:05.430Z,38.10
2023-04-12T08:12:07.362Z,35.47
2023-04-12T08:17:09.023Z,35.21
2023-04-12T08:22:13.492Z,38.66
2023-04-12T08:27:16.570Z,38.80
2023-04-12T08:32:18.295Z,42.39
2023-04-12T08:37:19.941Z,43.28
2023-04-12T08:42:22.384Z,40.25
2023-04-12T08:47:24.070Z,42.02
2023-04-12T08:52:25.696Z,43.37
2023-04-12T08:57:28.380Z,42.32
2023-04-12T09:02:31.658Z,41.69
2023-04-12T09:07:33.618Z,40.90
2023-04-12T09:12:35.512Z,43.90
2023-04-12T09:17:38.848Z,43.13
2023-04-12T09:22:44.542Z,42.78
2023-04-12T09:27:50.879Z,43.64
2023-04-12T09:32:54.555Z,42.89
2023-04-12T09:38:08.267Z,39.71
2023-04-12T09:43:10.709Z,39.93
2023-04-12T09:48:21.250Z,43.94
2023-04-12T09:53:22.940Z,43.38
2023-04-12T09:58:26.735Z,47.20
2023-04-12T10:03:29.021Z,46.26
2023-04-12T10:08:31.553Z,46.64
2023-04-12T10:13:33.850Z,46.36
2023-04-12T10:18:37.345Z,47.26
2023-04-12T10:23:39.327Z,47.41
2023-04-12T10:28:41.155Z,44.65
2023-04-12T10:33:43.251Z,43.59
2023-04-12T10:38:48.162Z,46.66
2023-04-12T10:43:52.645Z,45.35
2023-04-12T10:48:57.519Z,45.73
2023-04-12T10:54:08.396Z,47.02
2023-04-12T10:59:14.210Z,47.84
2023-04-12T11:04:21.052Z,48.48
2023-04-12T11:09:37.081Z,46.32
2023-04-12T11:14:50.498Z,45.89
2023-04-12T11:20:01.118Z,45.46
2023-04-12T11:25:03.435Z,44.75
2023-04-12T11:30:05.944Z,45.29
2023-04-12T11:35:11.056Z,43.57
2023-04-12T11:40:14.672Z,42.36
2023-04-12T11:45:20.265Z,48.08
2023-04-12T11:50:29.794Z,44.47
2023-04-12T11:55:31.648Z,49.32
2023-04-12T12:00:33.302Z,49.83
2023-04-12T12:05:38.480Z,49.64
2023-04-12T12:10:55.471Z,46.93
2023-04-12T12:16:06.893Z,48.00
2023-04-12T12:21:09.845Z,45.54
2023-04-12T12:26:24.910Z,47.86
2023-04-12T12:31:28.470Z,50.01
2023-04-12T12:36:32.897Z,49.52
2023-04-12T12:41:35.390Z,49.54
2023-04-12T12:51:42.625Z,52.02
2023-04-12T12:56:44.935Z,50.27
2023-04-12T13:01:46.629Z,51.08
2023-04-12T13:06:48.299Z,51.38
2023-04-12T13:11:49.923Z,48.97
2023-04-12T13:16:51.678Z,47.75
2023-04-12T13:21:53.458Z,50.74
2023-04-12T13:26:55.126Z,48.58
2023-04-12T13:31:56.955Z,49.73
2023-04-12T13:36:59.152Z,51.05
2023-04-12T13:42:02.254Z,51.61
2023-04-12T13:47:04.612Z,52.25
2023-04-12T13:52:06.377Z,53.24
2023-04-12T13:57:08.240Z,52.96
2023-04-12T14:02:10.263Z,53.63
2023-04-12T14:07:11.932Z,53.92
2023-04-12T14:12:13.535Z,56.03
2023-04-12T14:17:15.391Z,57.95
2023-04-12T14:22:17.105Z,58.99
2023-04-12T14:27:18.792Z,60.11
2023-04-12T14:32:20.592Z,60.65
2023-04-12T14:37:22.649Z,62.95
2023-04-12T14:42:24.341Z,64.79
2023-04-12T14:47:26.110Z,66.47
2023-04-12T14:52:27.783Z,68.37
2023-04-12T14:57:29.442Z,70.45
2023-04-12T15:02:31.274Z,69.95
2023-04-12T15:07:33.149Z,71.75
2023-04-12T15:12:35.540Z,73.88
2023-04-12T15:17:37.395Z,75.15
2023-04-12T15:22:40.342Z,76.26
2023-04-12T15:27:44.080Z,75.71
2023-04-12T15:32:47.059Z,76.50
2023-04-12T15:37:48.703Z,76.03
2023-04-12T15:42:50.693Z,75.54
2023-04-12T15:47:54.908Z,76.47
2023-04-12T15:52:57.914Z,77.68
2023-04-12T15:57:59.988Z,77.74
2023-04-12T16:03:01.805Z,78.60
2023-04-12T16:08:04.211Z,79.02
2023-04-12T16:13:06.324Z,79.47
2023-04-12T16:18:08.407Z,78.73
2023-04-12T16:23:10.052Z,78.32
2023-04-12T16:28:12.607Z,78.26
2023-04-12T16:33:14.304Z,78.34
2023-04-12T16:38:17.677Z,77.61
2023-04-12T16:43:19.500Z,77.82
2023-04-12T16:48:22.879Z,77.54
2023-04-12T16:53:24.733Z,77.67
2023-04-12T16:58:26.351Z,77.29
2023-04-12T17:03:28.144Z,77.53
2023-04-12T17:08:29.922Z,77.57
2023-04-12T17:13:31.591Z,77.29
2023-04-12T17:18:34.668Z,77.09
2023-04-12T17:23:36.781Z,77.80
2023-04-12T17:28:39.768Z,78.42
2023-04-12T17:33:41.611Z,79.08
2023-04-12T17:38:43.243Z,79.10
2023-04-12T17:43:47.286Z,79.67
2023-04-12T17:48:48.916Z,79.39
2023-04-12T17:53:50.766Z,79.58
2023-04-12T17:58:52.430Z,79.20
2023-04-12T18:03:54.241Z,79.02
2023-04-12T18:08:56.181Z,79.02
2023-04-12T18:13:58.173Z,78.95
2023-04-12T18:19:04.133Z,79.06
2023-04-12T18:24:06.306Z,79.13
2023-04-12T18:29:08.071Z,79.98
2023-04-12T18:34:09.883Z,79.99
2023-04-12T18:39:11.735Z,81.13
2023-04-12T18:44:13.429Z,80.92
2023-04-12T18:49:15.409Z,80.92
2023-04-12T18:54:17.609Z,81.35
2023-04-12T18:59:19.668Z,81.69
2023-04-12T19:04:21.888Z,82.38
2023-04-12T19:09:23.587Z,82.08
2023-04-12T19:14:25.494Z,82.20
2023-04-12T19:19:27.157Z,81.80
2023-04-12T19:24:28.790Z,82.24
2023-04-12T19:29:30.407Z,82.00
2023-04-12T19:34:32.237Z,82.31
2023-04-12T19:39:34.225Z,82.14
2023-04-12T19:44:37.255Z,82.32
2023-04-12T19:49:40.653Z,82.55
2023-04-12T19:54:42.321Z,83.10
2023-04-12T19:59:43.944Z,82.95
2023-04-12T20:04:45.600Z,83.54
2023-04-12T20:09:47.233Z,83.50
2023-04-12T20:14:48.841Z,83.85
2023-04-12T20:19:50.464Z,83.59
2023-04-12T20:24:54.133Z,83.03
2023-04-12T20:29:55.778Z,82.63
2023-04-12T20:34:58.224Z,82.59
2023-04-12T20:40:00.249Z,83.27
2023-04-12T20:45:03.201Z,83.35
2023-04-12T20:50:05.581Z,83.66
2023-04-12T20:55:07.518Z,83.57
2023-04-12T21:00:17.222Z,83.26
2023-04-12T21:05:18.838Z,82.82
2023-04-12T21:10:20.492Z,82.98
2023-04-12T21:15:22.250Z,83.02
2023-04-12T21:20:24.971Z,82.69
2023-04-12T21:25:26.573Z,82.97
2023-04-12T21:30:28.174Z,82.75
2023-04-12T21:35:30.319Z,82.86
2023-04-12T21:40:31.981Z,83.39
2023-04-12T21:45:33.664Z,83.03
2023-04-12T21:50:35.675Z,83.39
2023-04-12T21:55:37.353Z,83.57
2023-04-12T22:00:38.944Z,83.50
2023-04-12T22:05:41.158Z,83.57
2023-04-12T22:10:42.819Z,83.98
2023-04-12T22:15:44.450Z,84.44
2023-04-12T22:20:46.371Z,85.61
2023-04-12T22:25:49.583Z,85.25
2023-04-12T22:30:51.666Z,84.42
2023-04-12T22:35:53.408Z,84.35
2023-04-12T22:41:02.107Z,83.99
2023-04-12T22:46:05.869Z,83.80
2023-04-12T22:51:08.495Z,85.00
2023-04-12T22:56:11.263Z,85.74
2023-04-12T23:01:12.945Z,86.10
2023-04-12T23:06:14.733Z,85.74
2023-04-12T23:11:16.511Z,86.33
2023-04-12T23:16:18.355Z,86.37
2023-04-12T23:21:19.996Z,86.11
2023-04-12T23:26:21.904Z,85.76
2023-04-12T23:31:23.547Z,84.98
2023-04-12T23:36:26.114Z,85.74
2023-04-12T23:41:32.095Z,85.29
2023-04-12T23:46:35.023Z,84.89
2023-04-12T23:51:37.108Z,85.72
2023-04-12T23:56:38.718Z,85.73
